Time;durP1;ratioP1;P1;durP2;ratioP2;P2;SDS_P1;SDS_P2;PMS_P1;PMS_P2;Temp;Humidity;BMP_temperature;BMP_pressure;BME280_temperature;BME280_humidity;BME280_pressure;Samples;Min_cycle;Max_cycle;Signal;HPM_P1;HPM_P2
2021/03/22 00:01:32;;;;;;;;;;;8.20;56.90;;;;;;5014530;28;19926;-70
2021/03/22 00:03:59;;;;;;;;;;;8.20;57.00;;;;;;5004888;28;19926;-70
2021/03/22 00:06:25;;;;;;;;;;;8.20;57.00;;;;;;5020209;28;20381;-69
2021/03/22 00:08:54;;;;;;;;;;;8.20;57.10;;;;;;5009769;28;19926;-69
2021/03/22 00:11:20;;;;;;;;;;;8.20;57.00;;;;;;5005015;28;19972;-69
2021/03/22 00:13:46;;;;;;;;;;;8.20;57.10;;;;;;4995241;28;20461;-69
2021/03/22 00:16:13;;;;;;;;;;;8.20;57.20;;;;;;5009589;28;19925;-69
2021/03/22 00:18:40;;;;;;;;;;;8.20;57.30;;;;;;5013733;28;19933;-69
2021/03/22 00:21:08;;;;;;;;;;;8.30;57.50;;;;;;5014553;28;20379;-70
2021/03/22 00:23:34;;;;;;;;;;;8.30;57.50;;;;;;5001033;28;19926;-69
2021/03/22 00:26:00;;;;;;;;;;;8.40;57.60;;;;;;5000695;28;19929;-69
2021/03/22 00:28:26;;;;;;;;;;;8.40;57.40;;;;;;5012342;28;19925;-69
2021/03/22 00:30:53;;;;;;;;;;;8.40;57.30;;;;;;5005061;28;19925;-69
2021/03/22 00:33:20;;;;;;;;;;;8.40;57.40;;;;;;5014346;28;19937;-69
2021/03/22 00:35:48;;;;;;;;;;;8.40;57.40;;;;;;5014869;28;19937;-69
2021/03/22 00:38:15;;;;;;;;;;;8.40;57.40;;;;;;4997348;28;19929;-71
2021/03/22 00:40:42;;;;;;;;;;;8.50;57.60;;;;;;5001935;28;19933;-69
2021/03/22 00:43:09;;;;;;;;;;;8.50;57.50;;;;;;4998957;28;19925;-69
2021/03/22 00:45:35;;;;;;;;;;;8.50;57.60;;;;;;5009422;28;19926;-69
2021/03/22 00:48:01;;;;;;;;;;;8.50;57.60;;;;;;5013692;28;19934;-69
2021/03/22 00:50:30;;;;;;;;;;;8.50;57.60;;;;;;5012623;28;19932;-69
2021/03/22 00:52:57;;;;;;;;;;;8.50;57.60;;;;;;5012170;28;19925;-69
2021/03/22 00:55:24;;;;;;;;;;;8.60;57.70;;;;;;5012131;28;19930;-68
2021/03/22 00:57:51;;;;;;;;;;;8.60;57.50;;;;;;5013768;28;19932;-69
2021/03/22 01:00:21;;;;;;;;;;;8.70;57.60;;;;;;5000659;28;20004;-69
2021/03/22 01:02:47;;;;;;;;;;;8.70;57.50;;;;;;5013339;28;19926;-69
2021/03/22 01:05:14;;;;;;;;;;;8.70;57.40;;;;;;5015990;28;19929;-69
2021/03/22 01:07:40;;;;;;;;;;;8.70;57.40;;;;;;5015051;28;20284;-69
2021/03/22 01:10:09;;;;;;;;;;;8.70;57.40;;;;;;4994634;28;19932;-69
2021/03/22 01:12:35;;;;;;;;;;;8.80;57.30;;;;;;5012448;28;19925;-69
2021/03/22 01:15:03;;;;;;;;;;;8.80;57.10;;;;;;5011932;28;19933;-69
2021/03/22 01:17:29;;;;;;;;;;;8.80;57.10;;;;;;5016002;28;19925;-69
2021/03/22 01:19:55;;;;;;;;;;;8.80;57.10;;;;;;5005984;28;19933;-69
2021/03/22 01:22:22;;;;;;;;;;;8.80;57.10;;;;;;5011815;28;19929;-69
2021/03/22 01:24:48;;;;;;;;;;;8.80;57.00;;;;;;5012955;28;19925;-69
2021/03/22 01:27:15;;;;;;;;;;;8.80;57.00;;;;;;5011285;28;20374;-68
2021/03/22 01:29:42;;;;;;;;;;;8.80;56.90;;;;;;5013415;28;20294;-68
2021/03/22 01:32:09;;;;;;;;;;;8.80;56.90;;;;;;5012024;28;19925;-69
2021/03/22 01:34:35;;;;;;;;;;;8.80;56.80;;;;;;5013155;28;20294;-69
2021/03/22 01:37:02;;;;;;;;;;;8.80;56.70;;;;;;5012888;28;20374;-69
2021/03/22 01:39:30;;;;;;;;;;;8.80;56.60;;;;;;5013377;28;19926;-69
2021/03/22 01:42:24;;;;;;;;;;;8.80;56.60;;;;;;5024543;28;19925;-69
2021/03/22 01:44:53;;;;;;;;;;;8.80;56.60;;;;;;5019244;28;19932;-69
2021/03/22 01:47:21;;;;;;;;;;;8.80;56.70;;;;;;5014235;28;19929;-69
2021/03/22 01:49:50;;;;;;;;;;;8.80;56.80;;;;;;5012613;28;20378;-69
2021/03/22 01:52:16;;;;;;;;;;;8.80;56.70;;;;;;5030570;28;19940;-69
2021/03/22 01:54:43;;;;;;;;;;;8.80;56.70;;;;;;5019923;28;19933;-69
2021/03/22 01:57:26;;;;;;;;;;;8.80;56.70;;;;;;5014255;28;19925;-69
2021/03/22 01:59:55;;;;;;;;;;;8.80;56.50;;;;;;5013178;28;19932;-69
2021/03/22 02:02:22;;;;;;;;;;;8.80;57.20;;;;;;5013685;28;19930;-69
2021/03/22 02:04:49;;;;;;;;;;;8.80;56.70;;;;;;5015516;28;20405;-69
2021/03/22 02:07:15;;;;;;;;;;;8.80;57.30;;;;;;5012933;28;19925;-69
2021/03/22 02:09:41;;;;;;;;;;;8.80;56.50;;;;;;5015513;28;20409;-70
2021/03/22 02:12:09;;;;;;;;;;;8.80;56.40;;;;;;5030860;28;19925;-69
2021/03/22 02:14:35;;;;;;;;;;;8.80;56.40;;;;;;5026304;28;19929;-69
2021/03/22 02:17:11;;;;;;;;;;;8.80;56.50;;;;;;5012236;28;20386;-69
2021/03/22 02:20:01;;;;;;;;;;;8.80;56.60;;;;;;5012862;28;19925;-69
2021/03/22 02:22:38;;;;;;;;;;;8.80;56.60;;;;;;5008608;28;19929;-69
2021/03/22 02:25:22;;;;;;;;;;;8.80;56.60;;;;;;5029235;28;20418;-69
2021/03/22 02:28:21;;;;;;;;;;;8.80;56.60;;;;;;5012399;28;19933;-68
2021/03/22 02:31:06;;;;;;;;;;;8.70;56.50;;;;;;4942142;28;19927;-69
2021/03/22 02:34:00;;;;;;;;;;;8.70;56.50;;;;;;4938565;29;19978;-69
2021/03/22 02:36:30;;;;;;;;;;;8.60;56.60;;;;;;5005710;28;20059;-69
2021/03/22 02:38:57;;;;;;;;;;;8.60;56.80;;;;;;5030972;28;19929;-69
2021/03/22 02:41:26;;;;;;;;;;;8.60;56.70;;;;;;5026471;28;19932;-69
2021/03/22 02:44:03;;;;;;;;;;;8.60;56.80;;;;;;5013804;28;19956;-69
2021/03/22 02:46:29;;;;;;;;;;;8.60;56.80;;;;;;5012091;28;20410;-69
2021/03/22 02:48:56;;;;;;;;;;;8.50;57.00;;;;;;5012681;28;19929;-68
2021/03/22 02:51:25;;;;;;;;;;;8.50;57.20;;;;;;5012646;28;19947;-68
2021/03/22 02:53:55;;;;;;;;;;;8.50;57.20;;;;;;5011478;28;19938;-68
2021/03/22 02:56:38;;;;;;;;;;;8.50;57.10;;;;;;5012479;28;19930;-68
2021/03/22 02:59:08;;;;;;;;;;;8.50;57.10;;;;;;5012135;28;19925;-69
2021/03/22 03:01:37;;;;;;;;;;;8.60;56.90;;;;;;5000844;28;19941;-68
2021/03/22 03:04:06;;;;;;;;;;;8.60;56.70;;;;;;5006266;28;19929;-69
2021/03/22 03:06:46;;;;;;;;;;;8.60;56.60;;;;;;5001680;28;19925;-69
2021/03/22 03:09:13;;;;;;;;;;;8.60;56.40;;;;;;4989726;28;19936;-69
2021/03/22 03:11:39;;;;;;;;;;;8.60;56.40;;;;;;4999735;28;19933;-69
2021/03/22 03:14:05;;;;;;;;;;;8.60;56.30;;;;;;4996392;28;19926;-69
2021/03/22 03:16:32;;;;;;;;;;;8.60;56.50;;;;;;4996435;28;19933;-69
2021/03/22 03:18:58;;;;;;;;;;;8.60;56.40;;;;;;4989382;28;19925;-69
2021/03/22 03:21:25;;;;;;;;;;;8.60;56.50;;;;;;4996042;28;19926;-69
2021/03/22 03:23:52;;;;;;;;;;;8.60;56.40;;;;;;4995707;28;19997;-68
2021/03/22 03:26:18;;;;;;;;;;;8.60;56.30;;;;;;4995564;28;19933;-68
2021/03/22 03:28:45;;;;;;;;;;;8.60;56.30;;;;;;4995855;28;20342;-68
2021/03/22 03:31:11;;;;;;;;;;;8.60;56.20;;;;;;4996094;28;20390;-68
2021/03/22 03:33:37;;;;;;;;;;;8.60;56.50;;;;;;4994828;28;19984;-68
2021/03/22 03:36:04;;;;;;;;;;;8.60;56.00;;;;;;4995648;28;19933;-68
2021/03/22 03:38:31;;;;;;;;;;;8.50;55.80;;;;;;4995537;28;19926;-68
2021/03/22 03:40:57;;;;;;;;;;;8.60;55.90;;;;;;4995265;28;19926;-68
2021/03/22 03:43:24;;;;;;;;;;;8.60;55.80;;;;;;5007158;28;20391;-68
2021/03/22 03:45:51;;;;;;;;;;;8.60;55.80;;;;;;4995814;28;19926;-69
2021/03/22 03:48:19;;;;;;;;;;;8.60;55.80;;;;;;4995336;28;19949;-69
2021/03/22 03:50:46;;;;;;;;;;;8.60;55.80;;;;;;4995239;28;20260;-68
2021/03/22 03:53:13;;;;;;;;;;;8.60;55.80;;;;;;4995201;28;19925;-68
2021/03/22 03:55:40;;;;;;;;;;;8.60;56.00;;;;;;4996216;28;19936;-67
2021/03/22 03:58:07;;;;;;;;;;;8.60;56.00;;;;;;4993157;28;19926;-68
2021/03/22 04:00:34;;;;;;;;;;;8.60;55.70;;;;;;4995984;28;19933;-68
2021/03/22 04:03:14;;;;;;;;;;;8.60;55.80;;;;;;4995370;28;20390;-68
2021/03/22 04:05:40;;;;;;;;;;;8.50;55.70;;;;;;4995152;28;20425;-68
2021/03/22 04:08:06;;;;;;;;;;;8.50;55.60;;;;;;5005588;28;19972;-69
2021/03/22 04:10:33;;;;;;;;;;;8.60;55.70;;;;;;5004733;28;19998;-68
2021/03/22 04:13:00;;;;;;;;;;;8.60;55.80;;;;;;5024525;28;19925;-69
2021/03/22 04:15:26;;;;;;;;;;;8.60;55.30;;;;;;5018738;28;19926;-69
2021/03/22 04:17:52;;;;;;;;;;;8.60;55.50;;;;;;5007783;28;19925;-69
2021/03/22 04:20:19;;;;;;;;;;;8.60;55.50;;;;;;5013036;28;19932;-69
2021/03/22 04:22:45;;;;;;;;;;;8.50;55.50;;;;;;5014337;28;19930;-69
2021/03/22 04:25:12;;;;;;;;;;;8.60;55.60;;;;;;5009138;28;19926;-69
2021/03/22 04:27:39;;;;;;;;;;;8.60;55.60;;;;;;4995360;28;20390;-69
2021/03/22 04:30:07;;;;;;;;;;;8.60;55.70;;;;;;4995689;28;19949;-69
2021/03/22 04:32:34;;;;;;;;;;;8.60;55.70;;;;;;5012960;28;19925;-69
2021/03/22 04:35:00;;;;;;;;;;;8.60;55.50;;;;;;5014053;28;20294;-69
2021/03/22 04:37:26;;;;;;;;;;;8.60;55.70;;;;;;5012401;28;19926;-69
2021/03/22 04:39:53;;;;;;;;;;;8.60;55.70;;;;;;5014219;28;19937;-69
2021/03/22 04:42:19;;;;;;;;;;;8.60;55.60;;;;;;5014693;28;19925;-69
2021/03/22 04:44:45;;;;;;;;;;;8.60;55.50;;;;;;5034421;28;20289;-68
2021/03/22 04:47:12;;;;;;;;;;;8.60;55.60;;;;;;5011564;28;19933;-68
2021/03/22 04:49:39;;;;;;;;;;;8.60;55.50;;;;;;5014124;28;19930;-68
2021/03/22 04:52:05;;;;;;;;;;;8.60;55.60;;;;;;4996603;28;20324;-68
2021/03/22 04:54:32;;;;;;;;;;;8.60;55.50;;;;;;4995473;28;20313;-69
2021/03/22 04:57:09;;;;;;;;;;;8.60;55.50;;;;;;4995954;28;19926;-69
2021/03/22 04:59:35;;;;;;;;;;;8.60;55.60;;;;;;5013308;28;19925;-70
2021/03/22 05:02:02;;;;;;;;;;;8.60;55.50;;;;;;5018179;28;20454;-69
2021/03/22 05:04:29;;;;;;;;;;;8.60;55.50;;;;;;5007599;28;19933;-69
2021/03/22 05:06:55;;;;;;;;;;;8.60;55.50;;;;;;4994076;28;19937;-69
2021/03/22 05:09:21;;;;;;;;;;;8.60;55.50;;;;;;4995258;28;19934;-69
2021/03/22 05:11:47;;;;;;;;;;;8.60;55.30;;;;;;5010313;28;19979;-69
2021/03/22 05:14:14;;;;;;;;;;;8.50;55.40;;;;;;5002431;28;19930;-69
2021/03/22 05:16:40;;;;;;;;;;;8.50;55.40;;;;;;5003225;28;19929;-69
2021/03/22 05:19:06;;;;;;;;;;;8.50;55.40;;;;;;5015753;28;19932;-69
2021/03/22 05:21:33;;;;;;;;;;;8.50;55.30;;;;;;5002266;28;19929;-70
2021/03/22 05:24:00;;;;;;;;;;;8.50;55.00;;;;;;5011698;28;19925;-71
2021/03/22 05:26:26;;;;;;;;;;;8.50;54.70;;;;;;5012735;28;20298;-70
2021/03/22 05:28:52;;;;;;;;;;;8.50;54.60;;;;;;5031467;28;19929;-70
2021/03/22 05:31:18;;;;;;;;;;;8.50;54.50;;;;;;5016856;28;19971;-70
2021/03/22 05:33:45;;;;;;;;;;;8.50;54.60;;;;;;5017126;28;19925;-70
2021/03/22 05:36:11;;;;;;;;;;;8.50;54.40;;;;;;5011625;28;20405;-70
2021/03/22 05:38:38;;;;;;;;;;;8.50;54.60;;;;;;5012603;28;19933;-70
2021/03/22 05:41:06;;;;;;;;;;;8.50;54.30;;;;;;5018788;28;19956;-70
2021/03/22 05:43:50;;;;;;;;;;;8.50;54.30;;;;;;5012603;28;19933;-70
2021/03/22 05:46:18;;;;;;;;;;;8.50;54.30;;;;;;5010361;28;19925;-70
2021/03/22 05:48:52;;;;;;;;;;;8.50;54.20;;;;;;5012997;28;19929;-69
2021/03/22 05:51:33;;;;;;;;;;;8.50;54.10;;;;;;5019009;28;19930;-70
2021/03/22 05:54:05;;;;;;;;;;;8.50;54.00;;;;;;5005963;28;19926;-69
2021/03/22 05:56:37;;;;;;;;;;;8.50;54.20;;;;;;5011830;28;20392;-70
2021/03/22 05:59:12;;;;;;;;;;;8.50;54.40;;;;;;5011985;28;19926;-70
2021/03/22 06:01:41;;;;;;;;;;;8.50;54.20;;;;;;5019361;28;19925;-70
2021/03/22 06:04:19;;;;;;;;;;;8.50;54.00;;;;;;5002624;28;19934;-69
2021/03/22 06:06:47;;;;;;;;;;;8.50;54.10;;;;;;5012363;28;20052;-70
2021/03/22 06:09:18;;;;;;;;;;;8.50;54.00;;;;;;5011974;28;20401;-70
2021/03/22 06:11:49;;;;;;;;;;;8.50;54.30;;;;;;5000697;28;19926;-70
2021/03/22 06:14:18;;;;;;;;;;;8.50;54.30;;;;;;5011568;28;20032;-70
2021/03/22 06:16:46;;;;;;;;;;;8.50;54.40;;;;;;5011693;28;19925;-70
2021/03/22 06:19:13;;;;;;;;;;;8.50;54.50;;;;;;5001486;28;20448;-70
2021/03/22 06:21:41;;;;;;;;;;;8.60;54.80;;;;;;5003233;28;19930;-71
2021/03/22 06:24:13;;;;;;;;;;;8.60;54.80;;;;;;5012838;28;19926;-71
2021/03/22 06:26:41;;;;;;;;;;;8.60;54.70;;;;;;5010865;28;19925;-72
2021/03/22 06:29:17;;;;;;;;;;;8.70;54.70;;;;;;5012372;28;20355;-71
2021/03/22 06:31:44;;;;;;;;;;;8.60;54.80;;;;;;5003988;28;20302;-71
2021/03/22 06:34:13;;;;;;;;;;;8.70;54.90;;;;;;5009704;28;19925;-71
2021/03/22 06:36:39;;;;;;;;;;;8.70;55.00;;;;;;5011918;28;19948;-71
2021/03/22 06:39:07;;;;;;;;;;;8.70;54.90;;;;;;5013729;28;19929;-72
2021/03/22 06:41:36;;;;;;;;;;;8.70;55.10;;;;;;5015265;28;19933;-70
2021/03/22 06:44:05;;;;;;;;;;;8.70;55.10;;;;;;5008339;28;20445;-69
2021/03/22 06:46:31;;;;;;;;;;;8.70;55.60;;;;;;5009109;28;19976;-70
2021/03/22 06:48:59;;;;;;;;;;;8.70;55.40;;;;;;5015420;28;19926;-70
2021/03/22 06:51:26;;;;;;;;;;;8.70;55.50;;;;;;5020660;28;19925;-69
2021/03/22 06:53:53;;;;;;;;;;;8.70;55.50;;;;;;5014539;28;19929;-69
2021/03/22 06:56:21;;;;;;;;;;;8.80;55.60;;;;;;5012776;28;19926;-69
2021/03/22 06:58:48;;;;;;;;;;;8.80;55.50;;;;;;5007732;28;19925;-69
2021/03/22 07:01:27;;;;;;;;;;;8.80;55.40;;;;;;5002682;28;19930;-69
2021/03/22 07:03:54;;;;;;;;;;;8.70;55.50;;;;;;5014130;28;19972;-70
2021/03/22 07:06:21;;;;;;;;;;;8.80;55.40;;;;;;5011674;28;19925;-70
2021/03/22 07:08:48;;;;;;;;;;;8.80;55.60;;;;;;5017348;28;19925;-70
2021/03/22 07:11:16;;;;;;;;;;;8.80;55.60;;;;;;5016296;28;19926;-70
2021/03/22 07:13:53;;;;;;;;;;;8.80;55.40;;;;;;5017897;28;19925;-70
2021/03/22 07:16:20;;;;;;;;;;;8.80;55.50;;;;;;5015042;28;19948;-69
2021/03/22 07:19:12;;;;;;;;;;;8.80;55.60;;;;;;5018453;28;19971;-70
2021/03/22 07:21:45;;;;;;;;;;;8.80;55.40;;;;;;5028211;28;19925;-70
2021/03/22 07:24:14;;;;;;;;;;;8.80;55.50;;;;;;5025254;28;19956;-68
2021/03/22 07:26:48;;;;;;;;;;;8.80;55.50;;;;;;5015337;28;19930;-69
2021/03/22 07:29:35;;;;;;;;;;;8.90;55.50;;;;;;5021227;28;19979;-69
2021/03/22 07:32:06;;;;;;;;;;;8.90;55.30;;;;;;5013046;28;19925;-69
2021/03/22 07:34:38;;;;;;;;;;;8.90;55.10;;;;;;5013156;28;19933;-69
2021/03/22 07:37:09;;;;;;;;;;;8.90;55.00;;;;;;5016778;28;20390;-69
2021/03/22 07:39:40;;;;;;;;;;;9.00;55.00;;;;;;5027048;28;19929;-69
2021/03/22 07:42:28;;;;;;;;;;;9.10;55.00;;;;;;5016714;28;19932;-70
2021/03/22 07:45:09;;;;;;;;;;;9.20;55.00;;;;;;5014625;28;19926;-69
2021/03/22 07:47:48;;;;;;;;;;;9.20;54.50;;;;;;4979201;28;19925;-69
2021/03/22 07:50:20;;;;;;;;;;;9.20;54.60;;;;;;5005440;28;19952;-70
2021/03/22 07:52:49;;;;;;;;;;;9.20;54.20;;;;;;5028962;28;19940;-68
2021/03/22 07:55:26;;;;;;;;;;;9.20;53.90;;;;;;5018025;28;19925;-70
2021/03/22 07:57:56;;;;;;;;;;;9.20;54.10;;;;;;5012582;28;19929;-68
2021/03/22 08:00:26;;;;;;;;;;;9.20;53.80;;;;;;5012887;28;19983;-70
2021/03/22 08:03:00;;;;;;;;;;;9.20;53.70;;;;;;5018206;28;19925;-70
2021/03/22 08:05:31;;;;;;;;;;;9.20;53.50;;;;;;5014347;28;19925;-70
2021/03/22 08:07:58;;;;;;;;;;;9.20;53.70;;;;;;5016672;28;19926;-70
2021/03/22 08:10:40;;;;;;;;;;;9.20;53.40;;;;;;5015170;28;20267;-68
2021/03/22 08:13:12;;;;;;;;;;;9.20;53.40;;;;;;5014454;28;19926;-68
2021/03/22 08:15:43;;;;;;;;;;;9.30;53.30;;;;;;5014679;28;19933;-68
2021/03/22 08:18:18;;;;;;;;;;;9.40;53.10;;;;;;5014532;28;20048;-69
2021/03/22 08:20:51;;;;;;;;;;;9.40;53.00;;;;;;5019098;28;19979;-68
2021/03/22 08:23:19;;;;;;;;;;;9.40;52.90;;;;;;5034570;28;19932;-68
2021/03/22 08:25:48;;;;;;;;;;;9.40;53.30;;;;;;5033083;28;19924;-68
2021/03/22 08:28:18;;;;;;;;;;;9.40;52.60;;;;;;5033843;28;19926;-68
2021/03/22 08:30:47;;;;;;;;;;;9.50;52.50;;;;;;5034036;28;19929;-69
2021/03/22 08:33:17;;;;;;;;;;;9.50;52.30;;;;;;5034102;28;20408;-69
2021/03/22 08:35:50;;;;;;;;;;;9.60;52.20;;;;;;5034263;28;20352;-69
2021/03/22 08:38:26;;;;;;;;;;;9.60;51.90;;;;;;5034194;28;20306;-68
2021/03/22 08:40:53;;;;;;;;;;;9.70;51.90;;;;;;5033817;28;19932;-68
2021/03/22 08:43:23;;;;;;;;;;;9.70;51.50;;;;;;5033804;28;19979;-68
2021/03/22 08:45:58;;;;;;;;;;;9.70;52.10;;;;;;5033962;28;19932;-68
2021/03/22 08:48:26;;;;;;;;;;;9.70;51.60;;;;;;5034036;28;19929;-68
2021/03/22 08:50:53;;;;;;;;;;;9.70;51.50;;;;;;5033509;28;20365;-68
2021/03/22 08:53:23;;;;;;;;;;;9.80;51.80;;;;;;5032071;28;19932;-68
2021/03/22 08:55:51;;;;;;;;;;;10.00;51.00;;;;;;5033763;28;19941;-68
2021/03/22 08:58:22;;;;;;;;;;;10.10;50.70;;;;;;5033588;28;19928;-68
2021/03/22 09:00:49;;;;;;;;;;;10.10;50.40;;;;;;5033221;28;19929;-68
2021/03/22 09:03:33;;;;;;;;;;;10.20;50.00;;;;;;5027321;28;20294;-68
2021/03/22 09:06:07;;;;;;;;;;;10.20;49.90;;;;;;5013869;28;19929;-68
2021/03/22 09:08:35;;;;;;;;;;;10.20;49.90;;;;;;5013658;28;19925;-70
2021/03/22 09:11:14;;;;;;;;;;;10.20;49.80;;;;;;5013502;28;19926;-68
2021/03/22 09:13:49;;;;;;;;;;;10.20;49.70;;;;;;5013602;28;20291;-68
2021/03/22 09:16:36;;;;;;;;;;;10.10;49.60;;;;;;5013465;28;20032;-68
2021/03/22 09:19:04;;;;;;;;;;;9.90;50.30;;;;;;5011758;28;19925;-68
2021/03/22 09:21:30;;;;;;;;;;;9.80;50.70;;;;;;5013363;28;19926;-69
2021/03/22 09:23:57;;;;;;;;;;;9.70;50.80;;;;;;5013348;28;19925;-69
2021/03/22 09:26:39;;;;;;;;;;;9.70;51.20;;;;;;5013602;28;20370;-69
2021/03/22 09:29:24;;;;;;;;;;;9.60;51.30;;;;;;5012907;28;19949;-69
2021/03/22 09:31:50;;;;;;;;;;;9.60;51.50;;;;;;5013690;28;19932;-68
2021/03/22 09:34:38;;;;;;;;;;;9.70;51.80;;;;;;5013272;28;20449;-68
2021/03/22 09:37:23;;;;;;;;;;;9.70;51.90;;;;;;5013215;28;19925;-68
2021/03/22 09:39:50;;;;;;;;;;;9.70;52.10;;;;;;5013419;28;19993;-69
2021/03/22 09:42:22;;;;;;;;;;;9.80;52.10;;;;;;5013284;28;19930;-68
2021/03/22 09:45:12;;;;;;;;;;;9.90;51.90;;;;;;5011577;28;20354;-69
2021/03/22 09:47:40;;;;;;;;;;;10.00;51.10;;;;;;5013229;28;19929;-68
2021/03/22 09:50:14;;;;;;;;;;;10.20;51.10;;;;;;4995883;28;20374;-69
2021/03/22 09:52:42;;;;;;;;;;;10.30;50.10;;;;;;5013250;28;20010;-69
2021/03/22 09:55:23;;;;;;;;;;;10.30;50.10;;;;;;5013317;28;19925;-69
2021/03/22 09:57:50;;;;;;;;;;;10.30;50.20;;;;;;5011982;28;19926;-69
2021/03/22 10:00:35;;;;;;;;;;;10.40;50.10;;;;;;5013130;28;19972;-69
2021/03/22 10:03:19;;;;;;;;;;;10.50;50.10;;;;;;5012995;28;20342;-69
2021/03/22 10:05:56;;;;;;;;;;;10.70;49.80;;;;;;5012994;28;20294;-69
2021/03/22 10:08:22;;;;;;;;;;;10.90;49.60;;;;;;5012917;28;20417;-69
2021/03/22 10:10:51;;;;;;;;;;;11.00;48.80;;;;;;5011673;28;19987;-69
2021/03/22 10:13:20;;;;;;;;;;;11.10;48.70;;;;;;5014497;28;20378;-69
2021/03/22 10:15:51;;;;;;;;;;;11.00;47.90;;;;;;5016953;28;19926;-68
2021/03/22 10:18:29;;;;;;;;;;;11.00;48.10;;;;;;5016950;28;19925;-69
2021/03/22 10:21:03;;;;;;;;;;;10.90;47.80;;;;;;5016862;28;19925;-68
2021/03/22 10:23:31;;;;;;;;;;;10.80;47.90;;;;;;5016844;28;20547;-68
2021/03/22 10:26:01;;;;;;;;;;;10.70;47.90;;;;;;5016804;28;19926;-68
2021/03/22 10:28:29;;;;;;;;;;;10.50;48.20;;;;;;5016626;28;19932;-68
2021/03/22 10:30:56;;;;;;;;;;;10.40;48.60;;;;;;5016697;28;19929;-68
2021/03/22 10:33:22;;;;;;;;;;;10.30;48.80;;;;;;5016805;28;19955;-69
2021/03/22 10:35:50;;;;;;;;;;;10.20;49.00;;;;;;5016524;28;19930;-69
2021/03/22 10:38:17;;;;;;;;;;;10.20;49.10;;;;;;5014877;28;19925;-69
2021/03/22 10:40:44;;;;;;;;;;;10.10;49.60;;;;;;5016647;28;19925;-69
2021/03/22 10:43:23;;;;;;;;;;;10.10;49.80;;;;;;5016553;28;19926;-69
2021/03/22 10:45:50;;;;;;;;;;;10.00;50.10;;;;;;5016305;28;19925;-69
2021/03/22 10:48:22;;;;;;;;;;;9.90;51.00;;;;;;5016385;28;19948;-69
2021/03/22 10:50:58;;;;;;;;;;;9.90;51.30;;;;;;5016154;28;19926;-69
2021/03/22 10:53:24;;;;;;;;;;;9.90;51.60;;;;;;5016262;28;19979;-70
2021/03/22 10:55:50;;;;;;;;;;;9.90;51.90;;;;;;5016193;28;19925;-69
2021/03/22 10:58:22;;;;;;;;;;;9.90;52.10;;;;;;5015917;28;19933;-69
2021/03/22 11:00:56;;;;;;;;;;;10.00;51.20;;;;;;5016007;28;19995;-69
2021/03/22 11:03:24;;;;;;;;;;;10.10;51.40;;;;;;5014275;28;20344;-69
2021/03/22 11:05:53;;;;;;;;;;;10.10;51.40;;;;;;5015927;28;19925;-69
2021/03/22 11:08:21;;;;;;;;;;;10.20;51.40;;;;;;5015857;28;20016;-69
2021/03/22 11:10:48;;;;;;;;;;;10.20;51.00;;;;;;5015728;28;19979;-69
2021/03/22 11:13:17;;;;;;;;;;;10.30;50.90;;;;;;5015820;28;19972;-70
2021/03/22 11:15:47;;;;;;;;;;;10.30;50.60;;;;;;5015944;28;19996;-70
2021/03/22 11:18:15;;;;;;;;;;;10.30;50.50;;;;;;5015642;28;19937;-70
2021/03/22 11:20:42;;;;;;;;;;;10.30;50.50;;;;;;5015591;28;20382;-69
2021/03/22 11:23:15;;;;;;;;;;;10.30;50.60;;;;;;5015687;28;19940;-70
2021/03/22 11:25:42;;;;;;;;;;;10.40;50.60;;;;;;5014601;28;19929;-70
2021/03/22 11:28:24;;;;;;;;;;;10.40;50.40;;;;;;5015348;28;19926;-70
2021/03/22 11:30:57;;;;;;;;;;;10.50;50.30;;;;;;5013792;28;19975;-70
2021/03/22 11:33:32;;;;;;;;;;;10.60;50.60;;;;;;5015570;28;19925;-70
2021/03/22 11:36:04;;;;;;;;;;;10.60;49.40;;;;;;5015318;28;19925;-70
2021/03/22 11:38:32;;;;;;;;;;;10.50;49.20;;;;;;5015559;28;19925;-69
2021/03/22 11:40:58;;;;;;;;;;;10.50;49.30;;;;;;5015317;28;19936;-70
2021/03/22 11:43:28;;;;;;;;;;;10.50;49.10;;;;;;5015152;28;20008;-70
2021/03/22 11:45:54;;;;;;;;;;;10.50;49.00;;;;;;5015475;28;20365;-70
2021/03/22 11:48:39;;;;;;;;;;;10.50;49.00;;;;;;5015205;28;19925;-70
2021/03/22 11:51:08;;;;;;;;;;;10.50;48.90;;;;;;5015040;28;19967;-70
2021/03/22 11:53:56;;;;;;;;;;;10.50;48.60;;;;;;5015235;28;19933;-70
2021/03/22 11:56:27;;;;;;;;;;;10.60;48.40;;;;;;5013364;28;19932;-70
2021/03/22 11:59:06;;;;;;;;;;;10.60;48.70;;;;;;5014814;28;20374;-69
2021/03/22 12:01:32;;;;;;;;;;;10.80;48.80;;;;;;5015000;28;20436;-69
2021/03/22 12:04:13;;;;;;;;;;;10.90;48.50;;;;;;5014591;28;20293;-69
2021/03/22 12:06:53;;;;;;;;;;;11.00;48.60;;;;;;5014815;28;19936;-70
2021/03/22 12:09:19;;;;;;;;;;;11.20;48.40;;;;;;5014958;28;19926;-69
2021/03/22 12:11:46;;;;;;;;;;;11.20;48.30;;;;;;5014654;28;20358;-70
2021/03/22 12:14:12;;;;;;;;;;;11.30;48.20;;;;;;5014368;28;19934;-69
2021/03/22 12:16:38;;;;;;;;;;;11.30;47.70;;;;;;5014623;28;20370;-69
2021/03/22 12:19:06;;;;;;;;;;;11.20;47.70;;;;;;5014251;28;20279;-70
2021/03/22 12:21:35;;;;;;;;;;;11.10;48.10;;;;;;5014509;28;19925;-69
2021/03/22 12:24:02;;;;;;;;;;;11.10;48.20;;;;;;5012856;28;19930;-70
2021/03/22 12:26:30;;;;;;;;;;;11.00;48.00;;;;;;5014450;28;19925;-70
2021/03/22 12:28:57;;;;;;;;;;;10.90;48.10;;;;;;5014430;28;20433;-70
2021/03/22 12:31:24;;;;;;;;;;;10.80;48.20;;;;;;5014547;28;20279;-70
2021/03/22 12:33:51;;;;;;;;;;;10.70;48.40;;;;;;5014668;28;19926;-70
2021/03/22 12:36:18;;;;;;;;;;;10.70;48.80;;;;;;5014087;28;19926;-73
2021/03/22 12:38:45;;;;;;;;;;;10.70;48.90;;;;;;5014593;28;19926;-71
2021/03/22 12:41:14;;;;;;;;;;;10.70;48.60;;;;;;5014165;28;19932;-70
2021/03/22 12:43:40;;;;;;;;;;;10.70;48.80;;;;;;5014238;28;19929;-70
2021/03/22 12:46:10;;;;;;;;;;;10.70;49.00;;;;;;5013545;28;21424;-71
2021/03/22 12:48:37;;;;;;;;;;;10.70;48.90;;;;;;5012259;28;19925;-71
2021/03/22 12:51:03;;;;;;;;;;;10.70;48.60;;;;;;5000689;28;19926;-70
2021/03/22 12:53:32;;;;;;;;;;;10.60;48.70;;;;;;4994038;28;19933;-71
2021/03/22 12:56:00;;;;;;;;;;;10.60;48.70;;;;;;4985607;28;19932;-70
2021/03/22 12:58:27;;;;;;;;;;;10.60;48.70;;;;;;4974765;28;20441;-70
2021/03/22 13:00:55;;;;;;;;;;;10.50;49.20;;;;;;4985402;28;19926;-70
2021/03/22 13:03:22;;;;;;;;;;;10.50;48.80;;;;;;4999628;28;19925;-71
2021/03/22 13:05:49;;;;;;;;;;;10.50;48.70;;;;;;5001150;28;20354;-71
2021/03/22 13:08:18;;;;;;;;;;;10.50;48.70;;;;;;5006402;28;19979;-70
2021/03/22 13:10:44;;;;;;;;;;;10.40;48.60;;;;;;5014637;28;19925;-71
2021/03/22 13:13:12;;;;;;;;;;;10.40;48.70;;;;;;5013465;28;20325;-70
2021/03/22 13:15:40;;;;;;;;;;;10.40;48.80;;;;;;5022385;28;19925;-71
2021/03/22 13:18:10;;;;;;;;;;;10.50;49.00;;;;;;5033358;28;19928;-71
2021/03/22 13:20:36;;;;;;;;;;;10.50;48.80;;;;;;5030334;28;19951;-71
2021/03/22 13:23:03;;;;;;;;;;;10.50;48.40;;;;;;5033499;28;19925;-71
2021/03/22 13:25:29;;;;;;;;;;;10.50;48.70;;;;;;5021451;28;19925;-71
2021/03/22 13:27:55;;;;;;;;;;;10.50;48.60;;;;;;5013289;28;20409;-71
2021/03/22 13:30:24;;;;;;;;;;;10.50;48.70;;;;;;5014026;28;20445;-71
2021/03/22 13:32:51;;;;;;;;;;;10.60;48.90;;;;;;5013683;28;19933;-71
2021/03/22 13:35:19;;;;;;;;;;;10.60;49.00;;;;;;5012789;28;19925;-71
2021/03/22 13:37:46;;;;;;;;;;;10.70;48.80;;;;;;5013441;28;20378;-71
2021/03/22 13:40:13;;;;;;;;;;;10.80;48.60;;;;;;5013220;28;20367;-71
2021/03/22 13:42:40;;;;;;;;;;;10.80;48.60;;;;;;5031311;28;20393;-71
2021/03/22 13:45:07;;;;;;;;;;;10.90;48.60;;;;;;5032867;28;19932;-71
2021/03/22 13:47:34;;;;;;;;;;;10.80;48.50;;;;;;5013376;28;20012;-71
2021/03/22 13:50:00;;;;;;;;;;;10.80;48.60;;;;;;5013147;28;20379;-72
2021/03/22 13:52:28;;;;;;;;;;;10.90;48.70;;;;;;5015643;28;19929;-71
2021/03/22 13:54:55;;;;;;;;;;;10.90;48.70;;;;;;5013517;28;20020;-71
2021/03/22 13:57:21;;;;;;;;;;;10.80;48.70;;;;;;5012876;28;19992;-71
2021/03/22 13:59:47;;;;;;;;;;;10.80;49.00;;;;;;5012958;28;19926;-71
2021/03/22 14:02:14;;;;;;;;;;;10.80;49.00;;;;;;5024958;28;19936;-71
2021/03/22 14:04:42;;;;;;;;;;;10.80;49.00;;;;;;5024945;28;19952;-71
2021/03/22 14:07:09;;;;;;;;;;;10.80;49.10;;;;;;5020794;28;19926;-71
2021/03/22 14:09:36;;;;;;;;;;;10.70;49.10;;;;;;5019359;28;19925;-71
2021/03/22 14:12:02;;;;;;;;;;;10.70;49.10;;;;;;5032390;28;19936;-71
2021/03/22 14:14:29;;;;;;;;;;;10.80;49.10;;;;;;5030812;28;19932;-71
2021/03/22 14:16:55;;;;;;;;;;;10.80;49.20;;;;;;5025804;28;19926;-71
2021/03/22 14:19:21;;;;;;;;;;;10.80;49.20;;;;;;5017418;28;19932;-71
2021/03/22 14:21:49;;;;;;;;;;;10.80;49.20;;;;;;5032030;28;19948;-72
2021/03/22 14:24:16;;;;;;;;;;;10.80;49.30;;;;;;5028999;28;19925;-71
2021/03/22 14:26:42;;;;;;;;;;;10.80;49.30;;;;;;5013042;28;19925;-71
2021/03/22 14:29:09;;;;;;;;;;;10.80;49.40;;;;;;5014119;28;19980;-71
2021/03/22 14:31:36;;;;;;;;;;;10.80;49.40;;;;;;5031954;28;20393;-71
2021/03/22 14:34:03;;;;;;;;;;;10.80;49.40;;;;;;5028265;28;19933;-71
2021/03/22 14:36:30;;;;;;;;;;;10.70;49.30;;;;;;5031484;28;19925;-71
2021/03/22 14:39:00;;;;;;;;;;;10.70;49.60;;;;;;5013307;28;20378;-71
2021/03/22 14:41:26;;;;;;;;;;;10.70;49.80;;;;;;5012867;28;20298;-71